KMUI/MUI METAR and TAF weather

Enter ICAO airport designator
Station Type Date Time Source
KMUI METAR 2019/08/24 21:56 UTC NOAA

KMUI 242156Z AUTO 01004KT 10SM CLR 21/11 A3019 RMK AO2 SLP225 T02140105


Station Type Date Time Source
KMUI Decoded METAR 2019/08/24 21:56 UTC NOAA

Station name not available
Aug 24, 2019 - 05:56 PM EDT / 2019.08.24 2156 UTC
Wind: from the N (010 degrees) at 5 MPH (4 KT):0
Visibility: 10 mile(s):0
Sky conditions: clear
Temperature: 70.5 F (21.4 C)
Dew Point: 50.9 F (10.5 C)
Relative Humidity: 49%
Pressure (altimeter): 30.19 in. Hg (1022 hPa)
ob: KMUI 242156Z AUTO 01004KT 10SM CLR 21/11 A3019 RMK AO2 SLP225 T02140105
cycle: 22

Station Type Date Time Source
KMUI TAF 2019/08/23 17:27 UTC NOAA

TAF
AMD KMUI 231720Z 2317/2417 01006KT 8000 -RA OVC020 QNH3001INS
BECMG 2318/2319 36009KT 9999 NSW SCT050 QNH3005INS TX23/2319Z TN14/2411Z LAST NO
AMDS AFT 2318 NEXT 2611

Example: see airport list